Time;durP1;ratioP1;P1;durP2;ratioP2;P2;SDS_P1;SDS_P2;PMS_P1;PMS_P2;Temp;Humidity;BMP_temperature;BMP_pressure;BME280_temperature;BME280_humidity;BME280_pressure;Samples;Min_cycle;Max_cycle;Signal;HPM_P1;HPM_P2
2022/05/05 00:01:21;;;;;;;;;17.00;14.33;;;;;16.38;50.88;101840.47;4947021;28;59549;-61
2022/05/05 00:03:47;;;;;;;;;18.67;15.33;;;;;16.30;50.81;101832.88;4980758;28;45518;-61
2022/05/05 00:06:12;;;;;;;;;16.33;14.67;;;;;16.25;51.21;101836.78;4980206;28;45266;-61
2022/05/05 00:08:37;;;;;;;;;21.00;17.67;;;;;16.20;51.25;101839.72;4980732;28;59666;-61
2022/05/05 00:16:31;;;;;;;;;16.67;16.33;;;;;15.94;51.63;101833.16;4973810;28;45864;-61
2022/05/05 00:18:56;;;;;;;;;14.00;14.00;;;;;15.85;51.74;101834.53;4979860;28;45292;-61
2022/05/05 00:21:22;;;;;;;;;14.33;13.33;;;;;15.77;52.46;101839.44;4980243;28;45496;-63
2022/05/05 00:23:47;;;;;;;;;18.67;15.00;;;;;15.69;52.93;101837.19;4980449;28;45487;-63
2022/05/05 00:26:13;;;;;;;;;18.33;17.00;;;;;15.63;52.58;101835.72;4980358;28;52643;-63
2022/05/05 00:28:38;;;;;;;;;20.00;15.33;;;;;15.59;52.47;101833.25;4980331;28;62885;-61
2022/05/05 00:31:04;;;;;;;;;16.00;13.33;;;;;15.55;52.51;101840.59;4979986;28;45844;-62
2022/05/05 00:33:30;;;;;;;;;14.33;13.33;;;;;15.48;52.89;101836.53;4980132;28;61963;-62
2022/05/05 00:35:55;;;;;;;;;18.00;15.00;;;;;15.43;52.70;101838.59;4962668;28;45585;-62
2022/05/05 00:38:21;;;;;;;;;19.00;15.00;;;;;15.38;52.64;101841.53;4980675;28;45656;-62
2022/05/05 00:40:46;;;;;;;;;15.00;14.00;;;;;15.37;52.96;101842.50;4979266;28;45470;-62
2022/05/05 00:43:12;;;;;;;;;22.33;16.67;;;;;15.33;52.64;101841.78;4980845;28;45633;-62
2022/05/05 00:45:37;;;;;;;;;15.67;15.33;;;;;15.32;52.87;101837.38;4961567;28;45496;-62
2022/05/05 00:48:06;;;;;;;;;17.33;15.00;;;;;15.33;53.01;101843.59;4979812;28;45530;-62
2022/05/05 00:50:33;;;;;;;;;14.67;13.33;;;;;15.35;52.62;101842.56;4979355;28;45493;-62
2022/05/05 00:52:58;;;;;;;;;20.33;15.00;;;;;15.38;52.68;101845.09;4980171;28;45398;-62
2022/05/05 00:55:24;;;;;;;;;17.33;16.33;;;;;15.42;52.72;101844.91;4961753;28;61399;-62
2022/05/05 00:57:49;;;;;;;;;14.00;14.00;;;;;15.37;52.67;101838.00;4979210;28;60764;-62
2022/05/05 01:00:15;;;;;;;;;12.67;10.00;;;;;15.37;52.38;101843.34;4962716;28;45345;-62
2022/05/05 01:02:40;;;;;;;;;15.00;11.33;;;;;15.35;52.44;101839.03;4979845;28;45457;-62
2022/05/05 01:05:06;;;;;;;;;11.33;11.33;;;;;15.34;52.38;101839.97;4962693;28;45553;-62
2022/05/05 01:07:32;;;;;;;;;12.33;11.00;;;;;15.29;52.00;101842.03;4979744;28;45394;-62
2022/05/05 01:09:57;;;;;;;;;13.67;11.00;;;;;15.25;52.14;101833.25;4945408;28;54553;-62
2022/05/05 01:12:28;;;;;;;;;14.67;10.67;;;;;15.22;52.12;101845.03;4946002;28;60695;-62
2022/05/05 01:14:54;;;;;;;;;11.00;9.33;;;;;15.18;52.22;101850.63;4975345;28;46277;-62
2022/05/05 01:17:19;;;;;;;;;13.67;11.00;;;;;15.13;52.37;101848.19;4979907;28;45421;-62
2022/05/05 01:19:45;;;;;;;;;13.00;12.00;;;;;15.09;52.54;101843.94;4960574;28;58888;-62
2022/05/05 01:22:10;;;;;;;;;10.33;8.00;;;;;15.04;52.39;101843.31;4979410;28;62277;-62
2022/05/05 01:30:04;;;;;;;;;9.67;9.67;;;;;14.91;52.31;101844.91;4975745;28;45564;-62
2022/05/05 01:32:31;;;;;;;;;10.33;8.67;;;;;14.88;52.41;101840.56;4962369;28;45527;-62
2022/05/05 01:34:56;;;;;;;;;10.33;10.33;;;;;14.85;52.41;101836.25;4978595;28;45584;-62
2022/05/05 01:37:22;;;;;;;;;11.00;11.00;;;;;14.84;52.64;101845.22;4979033;28;58378;-62
2022/05/05 01:39:48;;;;;;;;;8.33;8.33;;;;;14.82;52.32;101841.78;4978738;28;52294;-62
2022/05/05 01:42:13;;;;;;;;;9.67;8.00;;;;;14.76;52.35;101842.06;4979048;28;45714;-62
2022/05/05 01:44:38;;;;;;;;;8.33;8.33;;;;;14.71;52.63;101839.63;4978812;28;56821;-62
2022/05/05 01:47:04;;;;;;;;;8.67;8.33;;;;;14.65;52.65;101839.06;4978606;28;59177;-62
2022/05/05 01:49:29;;;;;;;;;12.33;9.00;;;;;14.62;53.03;101839.22;4979806;28;47932;-62
2022/05/05 01:51:55;;;;;;;;;9.00;9.00;;;;;14.56;52.87;101841.25;4976891;28;56617;-62
2022/05/05 01:54:20;;;;;;;;;12.00;10.00;;;;;14.53;53.07;101837.84;4977082;28;45838;-62
2022/05/05 01:56:46;;;;;;;;;12.33;10.67;;;;;14.52;52.95;101838.78;4945275;28;45501;-62
2022/05/05 01:59:11;;;;;;;;;8.00;8.00;;;;;14.49;53.17;101839.81;4960259;28;57016;-62
2022/05/05 02:01:36;;;;;;;;;9.67;9.67;;;;;14.45;53.12;101846.25;4978711;28;48573;-62
2022/05/05 02:04:02;;;;;;;;;12.67;11.00;;;;;14.45;53.14;101838.22;4961407;28;49849;-62
2022/05/05 02:06:27;;;;;;;;;11.67;10.00;;;;;14.43;53.16;101839.25;4978989;28;61003;-62
2022/05/05 02:08:53;;;;;;;;;14.67;14.00;;;;;14.39;53.31;101844.78;4966622;28;59775;-62
2022/05/05 02:11:18;;;;;;;;;10.00;10.00;;;;;14.37;53.25;101843.97;4978616;28;57925;-62
2022/05/05 02:13:43;;;;;;;;;12.67;11.33;;;;;14.33;53.33;101837.03;4978737;28;46374;-62
2022/05/05 02:16:09;;;;;;;;;14.67;13.33;;;;;14.30;53.35;101839.00;4978939;28;54753;-62
2022/05/05 02:18:34;;;;;;;;;13.33;13.33;;;;;14.29;53.73;101840.81;4979013;28;45330;-62
2022/05/05 02:21:00;;;;;;;;;15.33;14.00;;;;;14.27;53.41;101840.00;4965558;28;45471;-62
2022/05/05 02:23:25;;;;;;;;;14.67;12.67;;;;;14.28;53.39;101843.56;4978336;28;60910;-62
2022/05/05 02:25:50;;;;;;;;;11.00;11.00;;;;;14.29;53.32;101837.25;4978846;28;45364;-62
2022/05/05 02:28:16;;;;;;;;;14.67;12.00;;;;;14.29;53.39;101847.94;4979198;28;45326;-62
2022/05/05 02:30:41;;;;;;;;;13.67;10.00;;;;;14.26;53.30;101843.63;4978403;28;45592;-62
2022/05/05 02:33:06;;;;;;;;;12.33;12.33;;;;;14.26;53.44;101840.09;4978385;28;67072;-62
2022/05/05 02:35:32;;;;;;;;;12.00;10.00;;;;;14.23;53.37;101841.97;4960908;28;63803;-62
2022/05/05 02:40:41;;;;;;;;;11.00;10.00;;;;;14.19;53.37;101835.03;4978436;28;45765;-62
2022/05/05 02:43:07;;;;;;;;;12.33;12.00;;;;;14.18;53.38;101833.31;4977657;28;45459;-62
2022/05/05 02:45:32;;;;;;;;;13.67;12.67;;;;;14.14;53.55;101834.38;4978461;28;45525;-62
2022/05/05 02:47:58;;;;;;;;;13.67;12.00;;;;;14.11;53.61;101831.88;4977125;28;45443;-62
2022/05/05 02:50:24;;;;;;;;;13.67;12.67;;;;;14.06;53.73;101837.44;4960442;28;45528;-62
2022/05/05 02:52:49;;;;;;;;;14.33;13.67;;;;;14.05;53.83;101841.06;4977907;28;47027;-61
2022/05/05 02:55:14;;;;;;;;;16.33;14.33;;;;;14.05;53.97;101840.19;4978829;28;45365;-62
2022/05/05 02:57:40;;;;;;;;;17.00;16.00;;;;;14.03;54.09;101842.94;4977978;28;56227;-62
2022/05/05 03:00:12;;;;;;;;;18.00;14.00;;;;;14.02;53.95;101837.66;4961056;28;45538;-62
2022/05/05 03:02:39;;;;;;;;;14.67;14.67;;;;;14.00;54.03;101832.41;4978345;28;45473;-62
2022/05/05 03:05:05;;;;;;;;;15.00;15.00;;;;;13.99;54.00;101838.69;4978447;28;45214;-62
2022/05/05 03:07:30;;;;;;;;;16.67;15.33;;;;;13.96;53.88;101830.81;4978567;28;45413;-62
2022/05/05 03:09:56;;;;;;;;;16.00;16.00;;;;;13.94;54.26;101835.34;4962539;28;45333;-62
2022/05/05 03:12:21;;;;;;;;;17.00;15.33;;;;;13.92;54.33;101834.56;4981723;28;47000;-62
2022/05/05 03:14:47;;;;;;;;;15.00;13.00;;;;;13.89;54.46;101837.38;4981047;28;45390;-62
2022/05/05 03:17:13;;;;;;;;;18.33;14.00;;;;;13.86;54.51;101838.41;4981411;28;45365;-62
2022/05/05 03:19:38;;;;;;;;;15.33;15.33;;;;;13.85;54.67;101841.16;4982549;28;45400;-62
2022/05/05 03:22:04;;;;;;;;;16.33;15.00;;;;;13.84;54.74;101836.72;4979902;28;65813;-62
2022/05/05 03:24:29;;;;;;;;;16.67;15.00;;;;;13.81;55.01;101840.41;4982072;28;45882;-62
2022/05/05 03:26:55;;;;;;;;;16.33;13.33;;;;;13.79;54.83;101844.97;4980656;28;55731;-62
2022/05/05 03:29:20;;;;;;;;;19.00;17.67;;;;;13.77;55.02;101841.50;4981701;28;45449;-62
2022/05/05 03:31:45;;;;;;;;;20.00;17.00;;;;;13.71;55.06;101840.00;4980253;28;64581;-62
2022/05/05 03:34:11;;;;;;;;;16.00;16.00;;;;;13.71;54.97;101840.00;4980979;28;63562;-62
2022/05/05 03:36:36;;;;;;;;;21.00;19.67;;;;;13.71;55.21;101839.13;4980974;28;59678;-62
2022/05/05 03:39:02;;;;;;;;;20.67;17.33;;;;;13.72;55.22;101841.72;4980951;28;49874;-62
2022/05/05 03:41:27;;;;;;;;;15.00;14.67;;;;;13.70;55.36;101846.28;4980918;28;46283;-62
2022/05/05 03:43:53;;;;;;;;;17.00;16.00;;;;;13.66;55.48;101847.38;4980767;28;45426;-62
2022/05/05 03:46:18;;;;;;;;;16.67;15.00;;;;;13.67;55.69;101850.91;4986646;28;45869;-62
2022/05/05 03:48:44;;;;;;;;;16.33;13.33;;;;;13.67;55.47;101845.56;4981117;28;45616;-62
2022/05/05 03:51:10;;;;;;;;;20.00;19.00;;;;;13.67;55.86;101849.06;4979533;28;46782;-62
2022/05/05 03:53:35;;;;;;;;;23.00;22.33;;;;;13.67;55.94;101845.56;4980633;28;45321;-62
2022/05/05 03:56:00;;;;;;;;;18.33;14.67;;;;;13.67;55.85;101849.06;4979834;28;57180;-62
2022/05/05 03:58:26;;;;;;;;;18.33;15.67;;;;;13.69;55.74;101851.72;4981338;28;45318;-62
2022/05/05 04:00:51;;;;;;;;;23.67;18.00;;;;;13.71;56.01;101849.81;4980174;28;46139;-62
2022/05/05 04:03:32;;;;;;;;;14.67;14.67;;;;;13.75;55.72;101855.88;4981404;28;45295;-62
2022/05/05 04:06:02;;;;;;;;;15.67;15.00;;;;;13.78;55.88;101859.28;4961151;28;45608;-62
2022/05/05 04:08:27;;;;;;;;;13.67;13.67;;;;;13.82;55.72;101860.88;4980806;28;46490;-62
2022/05/05 04:10:53;;;;;;;;;14.00;13.00;;;;;13.85;56.21;101862.53;4979798;28;57645;-62
2022/05/05 04:13:19;;;;;;;;;17.33;15.33;;;;;13.88;56.04;101863.28;4980787;28;45399;-62
2022/05/05 04:15:44;;;;;;;;;18.67;16.33;;;;;13.92;55.97;101857.78;4980885;28;45262;-62
2022/05/05 04:18:10;;;;;;;;;15.67;15.67;;;;;13.94;56.02;101859.44;4981215;28;45580;-62
2022/05/05 04:20:35;;;;;;;;;17.67;15.00;;;;;13.96;55.92;101865.59;4963779;28;64838;-62
2022/05/05 04:23:01;;;;;;;;;18.67;16.00;;;;;13.98;56.30;101868.19;4980142;28;45337;-62
2022/05/05 04:25:26;;;;;;;;;15.00;14.33;;;;;13.91;55.73;101867.59;4980216;28;55886;-62
2022/05/05 04:27:51;;;;;;;;;17.33;14.67;;;;;13.88;55.66;101876.66;4963116;28;45485;-62
2022/05/05 04:30:17;;;;;;;;;16.00;12.00;;;;;13.87;56.04;101877.59;4962131;28;65968;-62
2022/05/05 04:32:45;;;;;;;;;19.00;16.67;;;;;13.81;56.22;101872.50;4962829;28;45317;-62
2022/05/05 04:35:11;;;;;;;;;15.33;15.33;;;;;13.79;56.37;101878.88;4979934;28;59295;-62
2022/05/05 04:37:36;;;;;;;;;12.00;12.00;;;;;13.79;56.04;101874.38;4980274;28;45414;-62
2022/05/05 04:40:02;;;;;;;;;20.67;16.67;;;;;13.83;56.55;101877.78;4961979;28;59662;-62
2022/05/05 04:42:27;;;;;;;;;17.00;16.33;;;;;13.86;56.18;101875.84;4962159;28;45929;-62
2022/05/05 04:44:53;;;;;;;;;19.67;19.67;;;;;13.89;56.28;101883.69;4980181;28;45651;-62
2022/05/05 04:47:18;;;;;;;;;22.00;18.00;;;;;13.89;56.17;101882.84;4980905;28;45400;-62
2022/05/05 04:49:44;;;;;;;;;24.00;18.67;;;;;13.88;56.67;101878.44;4979642;28;45506;-62
2022/05/05 04:52:09;;;;;;;;;16.67;15.00;;;;;13.87;56.65;101882.94;4979337;28;59739;-62
2022/05/05 04:54:34;;;;;;;;;18.00;16.00;;;;;13.87;56.69;101887.38;4980285;28;46120;-62
2022/05/05 04:57:00;;;;;;;;;21.33;19.33;;;;;13.87;56.62;101885.59;4961531;28;57762;-62
2022/05/05 04:59:26;;;;;;;;;20.33;16.33;;;;;13.89;56.78;101888.19;4980453;28;46130;-62
2022/05/05 05:01:51;;;;;;;;;19.67;17.33;;;;;13.88;57.08;101883.78;4979265;28;45358;-62
2022/05/05 05:04:16;;;;;;;;;21.00;17.33;;;;;13.91;56.62;101889.00;4979529;28;57517;-62
2022/05/05 05:06:42;;;;;;;;;22.00;17.67;;;;;13.93;56.91;101891.59;4979497;28;45342;-62
2022/05/05 05:09:07;;;;;;;;;25.33;23.00;;;;;13.90;57.54;101892.63;4979130;28;67420;-62
2022/05/05 05:11:33;;;;;;;;;19.67;18.33;;;;;13.94;57.10;101896.88;4979098;28;45342;-62
2022/05/05 05:13:59;;;;;;;;;16.67;15.67;;;;;13.99;56.97;101896.66;4979787;28;45314;-62
2022/05/05 05:16:25;;;;;;;;;24.00;22.33;;;;;14.03;57.04;101891.09;4980011;28;45538;-62
2022/05/05 05:18:53;;;;;;;;;28.33;21.33;;;;;14.09;56.83;101897.09;4979116;28;46095;-62
2022/05/05 05:21:19;;;;;;;;;26.67;21.33;;;;;14.07;57.18;101899.84;4984097;28;45484;-62
2022/05/05 05:23:44;;;;;;;;;18.33;18.33;;;;;14.06;57.38;101904.31;4979441;28;45290;-62
2022/05/05 05:26:10;;;;;;;;;24.00;24.00;;;;;14.07;57.19;101908.72;4977503;28;59575;-62
2022/05/05 05:28:35;;;;;;;;;23.67;21.00;;;;;14.05;57.43;101915.09;4978865;28;50263;-62
2022/05/05 05:31:00;;;;;;;;;25.67;24.00;;;;;14.06;57.98;101911.47;4979351;28;45338;-62
2022/05/05 05:33:26;;;;;;;;;26.67;22.33;;;;;14.05;57.33;101909.72;4980294;28;46706;-62
2022/05/05 05:35:51;;;;;;;;;23.67;22.33;;;;;14.11;57.69;101913.94;4979290;28;45564;-62
2022/05/05 05:38:22;;;;;;;;;28.33;24.67;;;;;14.14;57.57;101911.13;4979483;28;45512;-62
2022/05/05 05:40:48;;;;;;;;;24.00;22.33;;;;;14.21;57.64;101921.47;4962216;28;45337;-62
2022/05/05 05:43:13;;;;;;;;;27.67;22.00;;;;;14.23;57.27;101918.69;4979344;28;45346;-62
2022/05/05 05:45:39;;;;;;;;;32.33;25.67;;;;;14.28;57.63;101922.03;4979849;28;45646;-62
2022/05/05 05:48:07;;;;;;;;;26.33;24.67;;;;;14.34;57.48;101920.84;4978459;28;64407;-62
2022/05/05 05:50:33;;;;;;;;;24.00;22.00;;;;;14.38;57.27;101915.28;4962269;28;45276;-62
2022/05/05 05:52:58;;;;;;;;;23.67;22.67;;;;;14.47;57.41;101922.03;4978290;28;45303;-62
2022/05/05 05:55:24;;;;;;;;;27.67;24.67;;;;;14.52;56.79;101919.09;4979505;28;45512;-62
2022/05/05 05:57:49;;;;;;;;;25.33;24.00;;;;;14.62;57.36;101922.22;4961035;28;45953;-62
2022/05/05 06:00:15;;;;;;;;;27.67;23.67;;;;;14.70;56.93;101920.91;4978543;28;62459;-62
2022/05/05 06:05:24;;;;;;;;;22.67;21.67;;;;;14.82;56.95;101919.44;4979034;28;45421;-62
2022/05/05 06:07:49;;;;;;;;;22.67;21.67;;;;;14.89;57.44;101925.34;4978440;28;45420;-62
2022/05/05 06:10:18;;;;;;;;;31.00;27.33;;;;;14.92;56.69;101930.53;4979001;28;59443;-62
2022/05/05 06:12:43;;;;;;;;;27.00;25.67;;;;;14.94;56.84;101931.34;4977378;28;45521;-62
2022/05/05 06:15:09;;;;;;;;;25.00;25.00;;;;;14.95;57.04;101930.38;4978307;28;61411;-62
2022/05/05 06:17:35;;;;;;;;;28.00;21.67;;;;;14.99;56.51;101933.78;4961158;28;46817;-62
2022/05/05 06:20:00;;;;;;;;;29.33;27.33;;;;;15.01;56.84;101938.09;4978857;28;45398;-62
2022/05/05 06:22:25;;;;;;;;;26.67;26.00;;;;;15.04;56.43;101940.66;4965108;28;45341;-62
2022/05/05 06:24:51;;;;;;;;;28.00;21.33;;;;;15.03;56.46;101936.22;4977047;28;62963;-62
2022/05/05 06:27:16;;;;;;;;;27.33;24.00;;;;;15.09;56.98;101943.09;4978481;28;45877;-62
2022/05/05 06:29:42;;;;;;;;;25.67;24.33;;;;;15.09;56.45;101945.75;4977819;28;61340;-62
2022/05/05 06:32:07;;;;;;;;;27.67;24.00;;;;;15.10;56.57;101947.50;4978757;28;54263;-63
2022/05/05 06:34:33;;;;;;;;;28.33;25.67;;;;;15.16;56.77;101946.31;4978925;28;45294;-63
2022/05/05 06:36:59;;;;;;;;;27.33;24.33;;;;;15.24;56.35;101948.59;4961059;28;45331;-62
2022/05/05 06:39:24;;;;;;;;;29.67;21.33;;;;;15.31;56.67;101942.00;4979156;28;45251;-62
2022/05/05 06:41:49;;;;;;;;;23.00;22.00;;;;;15.38;56.11;101952.31;4960604;28;59365;-63
2022/05/05 06:44:15;;;;;;;;;24.00;21.33;;;;;15.50;55.99;101952.59;4979423;28;46421;-63
2022/05/05 06:46:40;;;;;;;;;27.67;25.00;;;;;15.58;55.88;101958.44;4981888;28;46099;-62
2022/05/05 06:49:06;;;;;;;;;30.00;26.33;;;;;15.56;55.46;101954.97;4982134;28;45298;-62
2022/05/05 06:51:31;;;;;;;;;26.33;23.67;;;;;15.48;56.10;101957.19;4964396;28;51677;-62
2022/05/05 06:53:57;;;;;;;;;29.33;25.67;;;;;15.45;55.92;101960.91;4981126;28;60338;-62
2022/05/05 06:56:24;;;;;;;;;30.33;25.67;;;;;15.43;56.43;101957.41;4981554;28;45958;-62
2022/05/05 06:58:49;;;;;;;;;21.33;21.33;;;;;15.38;56.19;101962.16;4981343;28;45540;-62
2022/05/05 07:06:43;;;;;;;;;24.67;21.33;;;;;15.46;56.52;101967.13;4981437;28;45761;-62
2022/05/05 07:11:53;;;;;;;;;28.67;26.00;;;;;15.62;56.19;101973.41;4966696;28;45367;-62
2022/05/05 07:14:18;;;;;;;;;22.00;18.33;;;;;15.76;55.95;101975.38;4964465;28;45583;-62
2022/05/05 07:16:44;;;;;;;;;26.00;21.33;;;;;15.84;55.57;101967.81;4980554;28;63966;-62
2022/05/05 07:19:09;;;;;;;;;27.67;23.67;;;;;15.93;55.81;101966.44;4963881;28;58549;-62
2022/05/05 07:21:36;;;;;;;;;26.00;25.00;;;;;16.06;55.26;101968.44;4968418;28;45342;-62
2022/05/05 07:24:02;;;;;;;;;27.67;25.00;;;;;16.23;55.25;101971.09;4981425;28;45730;-62
2022/05/05 07:26:27;;;;;;;;;28.67;23.67;;;;;16.41;54.91;101976.38;4981199;28;46036;-62
2022/05/05 07:28:53;;;;;;;;;28.00;24.67;;;;;16.57;54.48;101977.25;4963464;28;48713;-62
2022/05/05 07:31:18;;;;;;;;;21.00;21.00;;;;;16.80;54.05;101975.06;4981620;28;45450;-62
2022/05/05 07:33:43;;;;;;;;;23.00;22.00;;;;;17.03;54.36;101979.13;4980774;28;53269;-61
2022/05/05 07:36:09;;;;;;;;;18.33;16.67;;;;;17.42;53.44;101985.78;4963146;28;64363;-61
2022/05/05 07:38:35;;;;;;;;;23.67;21.00;;;;;17.65;53.13;101981.69;4981362;28;45295;-62
2022/05/05 07:41:00;;;;;;;;;25.67;24.00;;;;;17.76;52.36;101981.00;4980989;28;45703;-62
2022/05/05 07:43:26;;;;;;;;;26.67;20.33;;;;;17.89;51.84;101985.66;4981496;28;45516;-62
2022/05/05 07:45:51;;;;;;;;;22.67;21.33;;;;;18.06;51.78;101984.63;4962820;28;57220;-62
2022/05/05 07:48:17;;;;;;;;;26.67;24.67;;;;;18.95;51.24;101980.69;4980791;28;63187;-62
2022/05/05 07:50:42;;;;;;;;;25.00;22.67;;;;;20.40;49.88;101967.03;4981151;28;45291;-62
2022/05/05 07:53:07;;;;;;;;;22.00;22.00;;;;;21.87;45.28;101978.44;4980654;28;58384;-62
2022/05/05 07:55:33;;;;;;;;;30.33;23.67;;;;;23.08;44.71;101977.59;4979102;28;65462;-62
2022/05/05 07:57:58;;;;;;;;;24.00;23.33;;;;;24.24;42.57;101977.59;4980737;28;45330;-62
2022/05/05 08:00:24;;;;;;;;;26.33;23.67;;;;;25.14;38.45;101977.59;4981213;28;45462;-62
2022/05/05 08:02:49;;;;;;;;;24.33;23.00;;;;;25.63;39.36;101982.97;4963298;28;45390;-62
2022/05/05 08:05:15;;;;;;;;;28.00;18.33;;;;;26.34;39.14;101976.97;4981211;28;45329;-62
2022/05/05 08:07:44;;;;;;;;;23.00;17.33;;;;;27.19;37.20;101984.84;4980454;28;45306;-62
2022/05/05 08:10:10;;;;;;;;;22.00;22.00;;;;;27.99;36.68;101982.97;4963507;28;45212;-62
2022/05/05 08:12:35;;;;;;;;;18.00;17.33;;;;;28.86;34.02;101983.66;4981006;28;45341;-62
2022/05/05 08:15:02;;;;;;;;;21.67;21.00;;;;;29.62;34.34;101985.34;4962907;28;46133;-62
2022/05/05 08:17:28;;;;;;;;;20.67;19.67;;;;;29.77;31.64;101983.59;4980671;28;45937;-63
2022/05/05 08:19:53;;;;;;;;;25.00;21.33;;;;;30.06;32.21;101989.53;4982408;28;45310;-62
2022/05/05 08:22:19;;;;;;;;;26.33;20.00;;;;;30.74;31.47;101988.00;4980488;28;45717;-63
2022/05/05 08:30:12;;;;;;;;;17.67;17.67;;;;;29.70;31.33;101996.31;4980674;28;45318;-63
2022/05/05 08:32:37;;;;;;;;;21.00;18.67;;;;;29.29;30.91;101993.63;4980727;28;45520;-63
2022/05/05 08:35:03;;;;;;;;;19.00;19.00;;;;;28.59;31.59;101997.59;4978046;28;65682;-62
2022/05/05 08:37:28;;;;;;;;;19.33;16.67;;;;;27.48;31.98;102007.44;4962975;28;45456;-63
2022/05/05 08:39:54;;;;;;;;;18.67;17.00;;;;;26.61;33.31;101998.91;4979606;28;52190;-63
2022/05/05 08:42:19;;;;;;;;;19.33;16.33;;;;;27.65;32.63;102000.22;4978778;28;59166;-63
2022/05/05 08:44:45;;;;;;;;;15.33;14.00;;;;;30.18;29.63;101994.47;4962256;28;45826;-63
2022/05/05 08:47:11;;;;;;;;;15.67;14.00;;;;;31.08;29.48;102003.22;4962254;28;61075;-63
2022/05/05 08:49:39;;;;;;;;;12.00;10.33;;;;;30.05;27.84;102010.63;4943960;28;45470;-63
2022/05/05 08:52:06;;;;;;;;;16.33;14.67;;;;;28.74;29.54;101995.94;4957607;28;45307;-63
2022/05/05 08:54:32;;;;;;;;;14.00;13.00;;;;;29.60;29.10;101999.22;4979350;28;45719;-63
2022/05/05 08:56:57;;;;;;;;;15.33;14.33;;;;;30.02;28.63;102009.09;4979638;28;45334;-63
2022/05/05 08:59:23;;;;;;;;;13.33;13.33;;;;;28.91;27.07;102018.72;4980482;28;45325;-63
2022/05/05 09:01:51;;;;;;;;;15.00;13.00;;;;;27.30;29.84;102024.72;4979416;28;45558;-63
2022/05/05 09:04:16;;;;;;;;;16.00;14.67;;;;;27.71;29.75;102016.81;4961826;28;46472;-63
2022/05/05 09:06:52;;;;;;;;;10.00;10.00;;;;;29.52;28.76;102002.00;4978437;28;61757;-62
2022/05/05 09:09:30;;;;;;;;;17.67;14.67;;;;;32.62;26.39;102002.72;4962826;28;45407;-63
2022/05/05 09:12:14;;;;;;;;;14.00;14.00;;;;;35.26;23.69;102008.53;4961765;28;45232;-62
2022/05/05 09:14:53;;;;;;;;;11.67;11.67;;;;;34.05;24.49;102014.78;4961988;28;47576;-63
2022/05/05 09:17:26;;;;;;;;;8.67;8.00;;;;;34.59;23.54;102015.88;4950787;28;45443;-63
2022/05/05 09:19:52;;;;;;;;;13.67;13.33;;;;;34.29;23.30;102005.13;4981881;28;45263;-63
2022/05/05 09:22:19;;;;;;;;;11.00;9.00;;;;;33.57;23.83;102010.00;4979741;28;46322;-63
2022/05/05 09:24:52;;;;;;;;;12.00;9.67;;;;;34.92;22.52;102010.44;4979057;28;46340;-63
2022/05/05 09:27:24;;;;;;;;;8.67;7.33;;;;;34.73;22.34;102013.97;4960826;28;45331;-63
2022/05/05 09:30:05;;;;;;;;;8.67;7.33;;;;;36.94;22.29;102010.78;4961818;28;45307;-63
2022/05/05 09:32:33;;;;;;;;;10.75;8.00;;;;;39.27;20.24;102011.03;4972717;28;45310;-62
2022/05/05 09:35:02;;;;;;;;;8.67;7.33;;;;;41.43;18.86;102016.47;4978456;28;45637;-62
2022/05/05 09:37:27;;;;;;;;;8.75;8.50;;;;;42.88;16.06;102010.69;4962407;28;45355;-63
2022/05/05 09:39:55;;;;;;;;;7.00;5.75;;;;;42.63;14.79;102017.72;4951791;28;45346;-63
2022/05/05 09:42:43;;;;;;;;;8.33;8.33;;;;;42.00;16.74;102012.53;4979681;28;45476;-65
2022/05/05 09:45:18;;;;;;;;;5.50;5.50;;;;;39.24;17.67;102019.00;4979199;28;46454;-63
2022/05/05 09:47:50;;;;;;;;;6.00;6.00;;;;;35.64;18.86;102028.31;4978947;28;45421;-61
2022/05/05 09:50:19;;;;;;;;;11.00;10.00;;;;;32.73;21.01;102028.94;4946508;28;45327;-63
2022/05/05 09:58:14;;;;;;;;;6.00;6.00;;;;;35.98;21.35;102007.00;4979761;28;45374;-62
2022/05/05 10:00:55;;;;;;;;;9.00;7.33;;;;;39.06;18.90;102004.06;4961917;28;45405;-62
2022/05/05 10:06:10;;;;;;;;;3.25;3.25;;;;;36.68;18.49;102011.78;4979360;28;45780;-62
2022/05/05 10:08:42;;;;;;;;;7.00;7.00;;;;;33.95;19.79;102017.91;4961648;28;45372;-63
2022/05/05 10:11:08;;;;;;;;;6.67;6.67;;;;;31.67;21.73;102020.94;4961893;28;45406;-63
2022/05/05 10:13:37;;;;;;;;;7.25;5.75;;;;;29.68;23.34;102025.78;4961890;28;45287;-63
2022/05/05 10:16:03;;;;;;;;;9.00;7.75;;;;;28.08;24.77;102028.50;4961209;28;45662;-62
2022/05/05 10:18:29;;;;;;;;;4.25;4.25;;;;;26.85;25.91;102025.66;4979007;28;45479;-63
2022/05/05 10:20:57;;;;;;;;;7.00;6.00;;;;;25.88;27.03;102034.09;4951315;28;45781;-62
2022/05/05 10:23:54;;;;;;;;;5.00;3.00;;;;;25.31;27.99;102025.84;4954378;28;56690;-62
2022/05/05 10:26:23;;;;;;;;;7.00;5.33;;;;;25.94;28.22;102024.47;4958893;28;45630;-62
2022/05/05 10:28:49;;;;;;;;;6.00;6.00;;;;;27.94;26.50;102026.34;4981132;28;45484;-62
2022/05/05 10:31:37;;;;;;;;;8.33;7.00;;;;;30.81;25.04;102012.84;4982945;28;45770;-62
2022/05/05 10:34:08;;;;;;;;;7.33;6.67;;;;;33.18;22.83;102014.97;4973631;28;45880;-62
2022/05/05 10:36:35;;;;;;;;;8.00;5.25;;;;;32.47;22.43;102016.53;4982250;28;45360;-62
2022/05/05 10:39:17;;;;;;;;;4.00;4.00;;;;;31.13;22.22;102011.78;4964867;28;45454;-63
2022/05/05 10:41:42;;;;;;;;;4.00;4.00;;;;;31.00;22.88;102019.72;4963577;28;45306;-62
2022/05/05 10:44:20;;;;;;;;;6.25;3.25;;;;;30.80;21.62;102011.97;4980440;28;45231;-62
2022/05/05 10:47:01;;;;;;;;;3.25;3.25;;;;;32.43;22.25;102006.94;4978556;28;45983;-62
2022/05/05 10:49:41;;;;;;;;;3.00;3.00;;;;;35.61;19.96;102001.94;4982172;28;45158;-62
2022/05/05 10:52:09;;;;;;;;;3.00;3.00;;;;;38.32;16.25;101998.78;4976302;28;45391;-62
2022/05/05 10:54:39;;;;;;;;;3.00;2.75;;;;;37.32;17.47;102001.53;4982119;28;45267;-62
2022/05/05 10:57:23;;;;;;;;;4.25;4.00;;;;;34.93;19.09;102009.38;4964287;28;45720;-63
2022/05/05 11:00:08;;;;;;;;;2.25;2.25;;;;;32.46;20.04;102005.72;4981683;28;45483;-62
2022/05/05 11:02:34;;;;;;;;;3.25;3.25;;;;;30.29;21.72;102009.66;4964603;28;45352;-62
2022/05/05 11:05:26;;;;;;;;;4.50;4.50;;;;;28.39;23.88;102017.91;4981552;28;45550;-63
2022/05/05 11:07:51;;;;;;;;;4.75;4.25;;;;;27.15;25.83;102027.13;4974225;28;45626;-62
2022/05/05 11:13:36;;;;;;;;;3.00;3.00;;;;;25.18;27.15;102014.41;4979436;28;45298;-62
2022/05/05 11:22:23;;;;;;;;;6.00;6.00;;;;;24.11;29.56;102010.44;4968113;28;45188;-62
2022/05/05 11:24:49;;;;;;;;;4.33;4.00;;;;;23.77;29.55;102013.41;4981400;28;45310;-62
2022/05/05 11:27:15;;;;;;;;;5.33;3.00;;;;;23.49;30.46;102013.06;4964391;28;45598;-62
2022/05/05 11:29:41;;;;;;;;;5.00;3.67;;;;;23.17;30.09;102011.25;4963547;28;46203;-62
2022/05/05 11:32:08;;;;;;;;;3.00;3.00;;;;;22.84;30.56;102010.38;4981465;28;45444;-62
2022/05/05 11:34:40;;;;;;;;;5.00;5.00;;;;;22.58;31.46;102005.25;4981088;28;45537;-62
2022/05/05 11:37:07;;;;;;;;;5.00;3.33;;;;;22.62;32.30;102012.16;4964151;28;45363;-62
2022/05/05 11:39:33;;;;;;;;;3.00;3.00;;;;;23.62;30.46;102015.56;4963958;28;46130;-62
2022/05/05 11:42:07;;;;;;;;;9.33;2.67;;;;;24.81;29.97;102004.22;4980930;28;45525;-62
2022/05/05 11:44:36;;;;;;;;;4.00;4.00;;;;;25.76;28.40;102008.91;4981500;28;45457;-62
2022/05/05 11:47:12;;;;;;;;;1.67;1.67;;;;;25.98;28.50;102000.50;4980830;28;45528;-62
2022/05/05 11:49:38;;;;;;;;;3.33;3.33;;;;;25.65;28.00;102000.91;4963259;28;45526;-62
2022/05/05 11:52:04;;;;;;;;;3.33;2.33;;;;;25.06;28.55;102005.53;4963206;28;45362;-62
2022/05/05 11:54:32;;;;;;;;;2.33;2.33;;;;;24.25;29.27;101996.47;4944349;28;45638;-62
2022/05/05 11:56:57;;;;;;;;;4.00;4.00;;;;;23.54;30.30;102013.53;4963593;28;45504;-62
2022/05/05 12:02:21;;;;;;;;;4.33;4.33;;;;;22.57;31.67;102003.53;4980904;28;45682;-61